createdAt,value
2019-04-25T00:00:48.678Z,5.50
2019-04-25T00:03:18.472Z,10.13
2019-04-25T00:05:48.133Z,9.40
2019-04-25T00:08:18.128Z,10.50
2019-04-25T00:10:47.621Z,12.23
2019-04-25T00:13:18.788Z,9.80
2019-04-25T00:15:48.148Z,13.33
2019-04-25T00:18:17.498Z,9.80
2019-04-25T00:20:52.231Z,13.63
2019-04-25T00:23:21.959Z,15.10
2019-04-25T00:26:17.606Z,13.47
2019-04-25T00:28:46.900Z,17.13
2019-04-25T00:31:16.703Z,16.63
2019-04-25T00:33:46.085Z,15.10
2019-04-25T00:36:15.307Z,13.63
2019-04-25T00:38:47.597Z,13.40
2019-04-25T00:41:16.527Z,13.97
2019-04-25T00:43:46.159Z,13.60
2019-04-25T00:46:15.903Z,9.73
2019-04-25T00:48:45.731Z,12.00
2019-04-25T00:51:15.067Z,17.67
2019-04-25T00:53:44.620Z,11.43
2019-04-25T00:56:14.033Z,12.07
2019-04-25T00:59:22.150Z,10.40
2019-04-25T01:02:13.588Z,13.90
2019-04-25T01:04:45.168Z,12.73
2019-04-25T01:07:14.426Z,10.70
2019-04-25T01:09:44.380Z,10.73
2019-04-25T01:12:13.961Z,11.00
2019-04-25T01:14:44.184Z,14.80
2019-04-25T01:17:14.673Z,10.43
2019-04-25T01:19:44.953Z,9.00
2019-04-25T01:22:15.496Z,12.47
2019-04-25T01:24:45.595Z,28.83
2019-04-25T01:27:14.899Z,9.73
2019-04-25T01:29:44.568Z,10.60
2019-04-25T01:32:16.758Z,7.57
2019-04-25T01:34:54.913Z,8.70
2019-04-25T01:37:34.132Z,8.77
2019-04-25T01:40:33.395Z,10.37
2019-04-25T01:43:37.302Z,11.20
2019-04-25T01:46:07.240Z,8.33
2019-04-25T01:48:36.517Z,7.20
2019-04-25T01:51:05.904Z,7.33
2019-04-25T01:53:35.648Z,10.90
2019-04-25T01:56:07.669Z,9.20
2019-04-25T01:58:37.242Z,6.57
2019-04-25T02:01:06.977Z,8.20
2019-04-25T02:03:36.734Z,9.47
2019-04-25T02:06:06.123Z,12.80
2019-04-25T02:08:35.414Z,9.83
2019-04-25T02:11:24.062Z,12.67
2019-04-25T02:13:54.946Z,10.17
2019-04-25T02:16:24.605Z,10.97
2019-04-25T02:18:55.089Z,10.47
2019-04-25T02:21:24.918Z,9.60
2019-04-25T02:23:55.769Z,12.50
2019-04-25T02:26:27.017Z,10.23
2019-04-25T02:28:58.414Z,12.10
2019-04-25T02:31:27.702Z,10.58
2019-04-25T02:34:00.178Z,11.83
2019-04-25T02:36:27.962Z,10.20
2019-04-25T02:39:01.158Z,10.93
2019-04-25T02:41:28.265Z,10.83
2019-04-25T02:44:01.174Z,9.77
2019-04-25T02:46:48.436Z,13.33
2019-04-25T02:49:39.227Z,11.47
2019-04-25T02:52:19.246Z,10.83
2019-04-25T02:54:48.617Z,14.00
2019-04-25T02:57:18.354Z,11.17
2019-04-25T02:59:49.387Z,10.97
2019-04-25T03:02:19.316Z,11.53
2019-04-25T03:04:49.074Z,10.33
2019-04-25T03:07:19.009Z,10.20
2019-04-25T03:09:48.384Z,10.90
2019-04-25T03:12:29.113Z,13.10
2019-04-25T03:14:49.195Z,11.03
2019-04-25T03:17:18.627Z,11.90
2019-04-25T03:20:16.158Z,13.53
2019-04-25T03:22:45.642Z,10.33
2019-04-25T03:25:17.534Z,15.90
2019-04-25T03:27:45.976Z,11.70
2019-04-25T03:30:18.025Z,15.77
2019-04-25T03:32:46.909Z,12.97
2019-04-25T03:35:17.282Z,14.40
2019-04-25T03:37:47.442Z,18.73
2019-04-25T03:40:16.770Z,12.40
2019-04-25T03:42:45.998Z,15.30
2019-04-25T03:45:15.355Z,14.13
2019-04-25T03:47:44.646Z,15.90
2019-04-25T03:50:15.361Z,16.13
2019-04-25T03:52:45.446Z,14.53
2019-04-25T03:55:14.695Z,12.53
2019-04-25T03:57:44.489Z,11.30
2019-04-25T04:00:14.665Z,15.00
2019-04-25T04:02:44.347Z,11.70
2019-04-25T04:05:14.889Z,9.87
2019-04-25T04:07:44.413Z,15.67
2019-04-25T04:10:15.397Z,12.83
2019-04-25T04:12:46.749Z,8.70
2019-04-25T04:15:18.659Z,8.03
2019-04-25T04:17:55.840Z,7.37
2019-04-25T04:20:50.122Z,9.13
2019-04-25T04:23:31.249Z,12.97
2019-04-25T04:26:01.271Z,14.27
2019-04-25T04:28:30.949Z,8.73
2019-04-25T04:31:00.502Z,10.27
2019-04-25T04:33:34.016Z,7.47
2019-04-25T04:36:03.763Z,11.20
2019-04-25T04:38:34.210Z,10.23
2019-04-25T04:41:04.011Z,9.77
2019-04-25T04:43:34.244Z,8.00
2019-04-25T04:46:04.034Z,8.93
2019-04-25T04:48:35.211Z,8.60
2019-04-25T04:51:04.457Z,8.20
2019-04-25T04:53:35.779Z,7.87
2019-04-25T04:56:05.005Z,5.97
2019-04-25T04:58:34.479Z,5.40
2019-04-25T05:01:03.747Z,8.60
2019-04-25T05:03:56.184Z,6.40
2019-04-25T05:06:31.325Z,6.57
2019-04-25T05:09:11.881Z,7.20
2019-04-25T05:11:42.091Z,6.73
2019-04-25T05:14:11.846Z,7.30
2019-04-25T05:16:41.093Z,10.43
2019-04-25T05:19:10.538Z,6.93
2019-04-25T05:21:39.828Z,7.30
2019-04-25T05:24:09.051Z,4.43
2019-04-25T05:26:38.662Z,10.00
2019-04-25T05:29:08.300Z,4.80
2019-04-25T05:31:43.941Z,7.00
2019-04-25T05:34:16.728Z,7.70
2019-04-25T05:36:45.446Z,10.30
2019-04-25T05:39:17.387Z,5.90
2019-04-25T05:42:07.725Z,7.12
2019-04-25T05:44:38.935Z,7.33
2019-04-25T05:47:08.511Z,4.70
2019-04-25T05:49:37.841Z,8.33
2019-04-25T05:52:07.091Z,5.17
2019-04-25T05:54:38.179Z,3.30
2019-04-25T05:57:07.474Z,6.03
2019-04-25T05:59:36.698Z,5.10
2019-04-25T06:02:27.757Z,3.13
2019-04-25T06:04:57.546Z,8.63
2019-04-25T06:07:28.559Z,2.95
2019-04-25T06:10:11.262Z,3.93
2019-04-25T06:12:49.624Z,3.23
2019-04-25T06:15:21.724Z,4.03
2019-04-25T06:18:15.178Z,3.03
2019-04-25T06:20:44.701Z,3.97
2019-04-25T06:23:35.932Z,3.37
2019-04-25T06:26:19.869Z,5.33
2019-04-25T06:28:49.051Z,3.17
2019-04-25T06:31:10.448Z,4.12
2019-04-25T06:33:40.275Z,3.33
2019-04-25T06:36:11.438Z,2.10
2019-04-25T06:38:41.832Z,2.40
2019-04-25T06:41:11.093Z,2.43
2019-04-25T06:43:41.991Z,5.27
2019-04-25T06:46:24.465Z,2.57
2019-04-25T06:49:07.214Z,3.27
2019-04-25T06:51:49.727Z,3.77
2019-04-25T06:54:18.985Z,8.27
2019-04-25T06:56:48.577Z,4.60
2019-04-25T06:59:17.850Z,4.40
2019-04-25T07:01:47.103Z,5.70
2019-04-25T07:04:16.833Z,2.40
2019-04-25T07:06:46.117Z,3.63
2019-04-25T07:09:17.237Z,5.13
2019-04-25T07:11:48.191Z,2.60
2019-04-25T07:14:19.524Z,3.63
2019-04-25T07:16:48.755Z,7.93
2019-04-25T07:19:18.052Z,5.97
2019-04-25T07:21:47.807Z,3.37
2019-04-25T07:24:17.647Z,3.53
2019-04-25T07:26:55.808Z,4.23
2019-04-25T07:29:33.766Z,3.33
2019-04-25T07:32:14.445Z,5.17
2019-04-25T07:34:43.961Z,9.27
2019-04-25T07:37:13.336Z,3.33
2019-04-25T07:39:44.179Z,4.00
2019-04-25T07:42:14.023Z,5.83
2019-04-25T07:44:50.599Z,9.47
2019-04-25T07:47:16.014Z,7.67
2019-04-25T07:49:45.477Z,6.73
2019-04-25T07:52:15.107Z,6.10
2019-04-25T07:54:44.334Z,5.03
2019-04-25T07:57:14.712Z,2.43
2019-04-25T07:59:45.763Z,4.90
2019-04-25T08:02:15.188Z,4.57
2019-04-25T08:04:44.776Z,3.80
2019-04-25T08:07:15.309Z,11.03
2019-04-25T08:09:44.948Z,8.43
2019-04-25T08:12:14.628Z,6.90
2019-04-25T08:14:49.205Z,2.23
2019-04-25T08:17:39.604Z,4.53
2019-04-25T08:20:09.333Z,3.62
2019-04-25T08:22:52.905Z,3.40
2019-04-25T08:25:11.095Z,1.93
2019-04-25T08:27:41.457Z,1.73
2019-04-25T08:30:12.196Z,10.27
2019-04-25T08:32:44.033Z,5.93
2019-04-25T08:35:15.937Z,10.30
2019-04-25T08:37:44.577Z,2.73
2019-04-25T08:40:15.462Z,4.03
2019-04-25T08:42:46.515Z,3.17
2019-04-25T08:45:17.286Z,6.47
2019-04-25T08:47:47.258Z,2.40
2019-04-25T08:50:31.363Z,4.03
2019-04-25T08:52:58.929Z,2.70
2019-04-25T08:55:47.115Z,1.40
2019-04-25T08:58:44.601Z,9.60
2019-04-25T09:01:23.554Z,4.40
2019-04-25T09:03:58.142Z,3.03
2019-04-25T09:06:27.832Z,5.83
2019-04-25T09:08:57.067Z,4.03
2019-04-25T09:11:26.343Z,3.23
2019-04-25T09:13:55.711Z,6.30
2019-04-25T09:16:25.385Z,10.10
2019-04-25T09:18:54.732Z,3.43
2019-04-25T09:21:24.396Z,7.47
2019-04-25T09:23:54.668Z,4.47
2019-04-25T09:26:24.184Z,2.67
2019-04-25T09:28:53.776Z,4.67
2019-04-25T09:31:23.640Z,6.17
2019-04-25T09:33:55.273Z,7.37
2019-04-25T09:36:25.281Z,1.97
2019-04-25T09:38:56.413Z,4.17
2019-04-25T09:41:26.050Z,1.83
2019-04-25T09:43:59.539Z,2.00
2019-04-25T09:46:31.779Z,9.30
2019-04-25T09:49:23.815Z,5.73
2019-04-25T09:52:03.359Z,6.23
2019-04-25T09:54:47.966Z,1.50
2019-04-25T09:57:48.413Z,12.03
2019-04-25T10:00:28.995Z,4.30
2019-04-25T10:02:58.552Z,3.90
2019-04-25T10:05:28.179Z,2.53
2019-04-25T10:07:57.555Z,5.30
2019-04-25T10:10:27.246Z,4.30
2019-04-25T10:12:56.793Z,3.10
2019-04-25T10:16:04.495Z,4.27
2019-04-25T10:18:34.891Z,2.57
2019-04-25T10:21:08.149Z,7.70
2019-04-25T10:23:39.870Z,3.07
2019-04-25T10:26:10.363Z,4.80
2019-04-25T10:28:41.627Z,7.60
2019-04-25T10:31:10.987Z,4.13
2019-04-25T10:33:40.501Z,4.43
2019-04-25T10:36:11.266Z,8.57
2019-04-25T10:38:40.878Z,3.43
2019-04-25T10:41:14.086Z,4.70
2019-04-25T10:43:44.609Z,10.20
2019-04-25T10:46:14.228Z,4.63
2019-04-25T10:48:44.110Z,5.13
2019-04-25T10:51:14.034Z,2.90
2019-04-25T10:53:45.609Z,2.73
2019-04-25T10:56:14.627Z,3.00
2019-04-25T10:58:45.693Z,3.03
2019-04-25T11:01:16.365Z,6.90
2019-04-25T11:03:55.752Z,4.83
2019-04-25T11:06:28.189Z,3.00
2019-04-25T11:08:57.467Z,3.93
2019-04-25T11:11:27.067Z,5.57
2019-04-25T11:13:58.936Z,3.60
2019-04-25T11:16:28.602Z,4.17
2019-04-25T11:18:58.190Z,4.83
2019-04-25T11:21:27.604Z,2.70
2019-04-25T11:23:56.862Z,7.50
2019-04-25T11:26:26.316Z,4.40
2019-04-25T11:28:57.388Z,5.00
2019-04-25T11:31:33.541Z,6.17
2019-04-25T11:34:03.604Z,3.33
2019-04-25T11:36:34.085Z,3.20
2019-04-25T11:39:34.684Z,2.90
2019-04-25T11:42:07.624Z,5.40
2019-04-25T11:44:37.200Z,4.50
2019-04-25T11:47:08.521Z,4.57
2019-04-25T11:49:37.814Z,3.13
2019-04-25T11:52:08.135Z,5.63
2019-04-25T11:54:37.524Z,2.53
2019-04-25T11:57:08.439Z,4.67
2019-04-25T11:59:38.081Z,1.33
2019-04-25T12:02:09.430Z,3.57
2019-04-25T12:04:39.480Z,6.70
2019-04-25T12:07:09.616Z,1.93
2019-04-25T12:09:42.886Z,1.93
2019-04-25T12:12:14.931Z,16.53
2019-04-25T12:14:45.146Z,1.73
2019-04-25T12:17:15.479Z,2.60
2019-04-25T12:19:46.883Z,6.47
2019-04-25T12:22:16.774Z,2.33
2019-04-25T12:24:47.912Z,6.57
2019-04-25T12:27:17.566Z,2.60
2019-04-25T12:29:47.153Z,3.77
2019-04-25T12:32:18.086Z,6.17
2019-04-25T12:34:47.496Z,7.10
2019-04-25T12:37:17.205Z,5.53
2019-04-25T12:39:48.490Z,3.90
2019-04-25T12:42:18.893Z,3.47
2019-04-25T12:44:58.157Z,2.10
2019-04-25T12:47:29.383Z,1.90
2019-04-25T12:49:58.635Z,2.77
2019-04-25T12:52:27.891Z,4.83
2019-04-25T12:54:58.590Z,7.20
2019-04-25T12:57:29.278Z,7.13
2019-04-25T13:00:04.051Z,4.40
2019-04-25T13:02:36.295Z,2.83
2019-04-25T13:05:06.031Z,2.43
2019-04-25T13:07:36.342Z,1.20
2019-04-25T13:10:06.036Z,3.53
2019-04-25T13:12:35.690Z,4.03
2019-04-25T13:15:06.453Z,2.13
2019-04-25T13:17:35.730Z,8.63
2019-04-25T13:20:05.932Z,4.93
2019-04-25T13:22:35.530Z,2.40
2019-04-25T13:25:06.817Z,6.30
2019-04-25T13:27:42.255Z,6.10
2019-04-25T13:30:21.520Z,6.87
2019-04-25T13:33:15.721Z,9.30
2019-04-25T13:35:55.486Z,6.73
2019-04-25T13:38:26.156Z,1.43
2019-04-25T13:40:55.413Z,2.23
2019-04-25T13:43:25.252Z,2.40
2019-04-25T13:45:54.797Z,2.73
2019-04-25T13:48:26.546Z,1.03
2019-04-25T13:50:55.750Z,5.80
2019-04-25T13:53:25.695Z,2.97
2019-04-25T13:55:55.478Z,3.50
2019-04-25T13:58:25.499Z,1.10
2019-04-25T14:00:55.542Z,1.67
2019-04-25T14:03:27.281Z,2.50
2019-04-25T14:05:56.818Z,3.02
2019-04-25T14:08:26.989Z,1.90
2019-04-25T14:10:56.703Z,4.23
2019-04-25T14:13:28.331Z,3.50
2019-04-25T14:16:13.845Z,5.63
2019-04-25T14:19:05.979Z,2.03
2019-04-25T14:21:35.562Z,2.83
2019-04-25T14:24:05.192Z,6.97
2019-04-25T14:26:34.444Z,2.97
2019-04-25T14:29:04.835Z,4.50
2019-04-25T14:31:45.550Z,9.73
2019-04-25T14:34:05.365Z,1.90
2019-04-25T14:36:35.467Z,1.60
2019-04-25T14:39:06.241Z,2.30
2019-04-25T14:41:35.490Z,2.70
2019-04-25T14:46:38.466Z,3.20
2019-04-25T14:49:07.730Z,1.13
2019-04-25T14:51:38.846Z,1.20
2019-04-25T14:54:13.584Z,1.50
2019-04-25T14:56:54.385Z,3.00
2019-04-25T14:59:24.947Z,2.70
2019-04-25T15:01:55.669Z,3.00
2019-04-25T15:04:25.981Z,3.63
2019-04-25T15:06:55.230Z,0.80
2019-04-25T15:09:24.644Z,1.63
2019-04-25T15:11:53.931Z,1.60
2019-04-25T15:14:23.671Z,2.40
2019-04-25T15:16:53.399Z,1.90
2019-04-25T15:19:24.238Z,1.70
2019-04-25T15:21:53.914Z,2.30
2019-04-25T15:24:25.092Z,6.47
2019-04-25T15:26:54.647Z,2.57
2019-04-25T15:29:23.925Z,1.33
2019-04-25T15:31:55.923Z,4.30
2019-04-25T15:34:28.100Z,2.60
2019-04-25T15:37:02.432Z,4.83
2019-04-25T15:39:47.740Z,6.03
2019-04-25T15:42:30.216Z,2.70
2019-04-25T15:45:21.647Z,0.90
2019-04-25T15:47:51.004Z,2.30
2019-04-25T15:50:21.138Z,3.67
2019-04-25T15:52:51.661Z,3.50
2019-04-25T15:55:21.631Z,2.00
2019-04-25T15:57:51.138Z,2.37
2019-04-25T16:00:28.458Z,3.97
2019-04-25T16:02:58.471Z,2.07
2019-04-25T16:05:28.477Z,1.57
2019-04-25T16:07:58.985Z,5.03
2019-04-25T16:10:28.609Z,4.33
2019-04-25T16:12:58.110Z,2.97
2019-04-25T16:15:27.695Z,2.30
2019-04-25T16:17:56.994Z,2.80
2019-04-25T16:20:28.237Z,1.73
2019-04-25T16:22:59.675Z,1.90
2019-04-25T16:25:29.958Z,1.33
2019-04-25T16:28:00.473Z,3.13
2019-04-25T16:30:33.306Z,1.57
2019-04-25T16:33:04.024Z,2.67
2019-04-25T16:35:35.476Z,1.37
2019-04-25T16:38:07.638Z,1.77
2019-04-25T16:40:39.790Z,5.50
2019-04-25T16:43:12.056Z,5.33
2019-04-25T16:45:43.421Z,3.47
2019-04-25T16:48:14.511Z,2.57
2019-04-25T16:50:45.665Z,2.30
2019-04-25T16:53:16.979Z,5.40
2019-04-25T16:55:46.439Z,3.23
2019-04-25T16:58:15.892Z,5.53
2019-04-25T17:00:50.057Z,3.80
2019-04-25T17:03:21.888Z,3.53
2019-04-25T17:05:51.985Z,3.57
2019-04-25T17:08:21.473Z,2.40
2019-04-25T17:10:51.577Z,2.80
2019-04-25T17:13:21.399Z,1.30
2019-04-25T17:16:10.258Z,1.73
2019-04-25T17:18:59.443Z,1.67
2019-04-25T17:21:31.332Z,1.53
2019-04-25T17:24:01.822Z,2.13
2019-04-25T17:26:33.124Z,1.73
2019-04-25T17:29:05.156Z,3.33
2019-04-25T17:31:53.712Z,4.63
2019-04-25T17:34:42.007Z,3.27
2019-04-25T17:37:24.055Z,2.17
2019-04-25T17:39:56.598Z,2.07
2019-04-25T17:42:25.842Z,1.10
2019-04-25T17:44:56.419Z,6.77
2019-04-25T17:47:26.129Z,1.43
2019-04-25T17:49:55.781Z,1.10
2019-04-25T17:52:26.403Z,4.97
2019-04-25T17:54:56.205Z,2.60
2019-04-25T17:57:25.695Z,2.00
2019-04-25T17:59:56.306Z,3.00
2019-04-25T18:02:27.136Z,3.50
2019-04-25T18:04:56.902Z,2.97
2019-04-25T18:07:26.298Z,2.33
2019-04-25T18:09:56.317Z,1.50
2019-04-25T18:12:26.130Z,4.60
2019-04-25T18:14:57.480Z,2.40
2019-04-25T18:17:27.202Z,5.37
2019-04-25T18:20:01.992Z,4.53
2019-04-25T18:22:57.018Z,2.80
2019-04-25T18:25:37.282Z,2.07
2019-04-25T18:28:13.122Z,1.53
2019-04-25T18:30:43.268Z,2.33
2019-04-25T18:33:28.811Z,3.00
2019-04-25T18:36:14.222Z,1.30
2019-04-25T18:38:55.441Z,1.83
2019-04-25T18:41:33.809Z,3.00
2019-04-25T18:44:04.729Z,3.70
2019-04-25T18:46:42.492Z,4.70
2019-04-25T18:49:12.161Z,6.10
2019-04-25T18:51:41.414Z,5.43
2019-04-25T18:54:27.581Z,1.80
2019-04-25T18:57:29.708Z,5.00
2019-04-25T19:00:16.863Z,8.33
2019-04-25T19:03:08.140Z,3.30
2019-04-25T19:05:51.610Z,3.47
2019-04-25T19:08:21.198Z,5.53
2019-04-25T19:10:50.500Z,2.40
2019-04-25T19:13:20.174Z,2.77
2019-04-25T19:15:49.849Z,2.77
2019-04-25T19:18:19.086Z,3.27
2019-04-25T19:20:48.475Z,2.43
2019-04-25T19:23:17.730Z,4.73
2019-04-25T19:25:47.830Z,5.53
2019-04-25T19:28:17.216Z,4.30
2019-04-25T19:30:47.649Z,2.23
2019-04-25T19:33:17.418Z,4.57
2019-04-25T19:35:47.700Z,2.30
2019-04-25T19:38:18.472Z,3.43
2019-04-25T19:40:56.056Z,2.63
2019-04-25T19:43:51.490Z,4.33
2019-04-25T19:46:37.283Z,5.37
2019-04-25T19:49:07.298Z,3.63
2019-04-25T19:51:37.870Z,4.20
2019-04-25T19:54:10.610Z,6.00
2019-04-25T19:56:39.991Z,3.70
2019-04-25T19:59:09.232Z,5.13
2019-04-25T20:01:38.824Z,4.80
2019-04-25T20:04:16.937Z,2.30
2019-04-25T20:07:04.127Z,1.73
2019-04-25T20:10:01.403Z,3.23
2019-04-25T20:12:51.799Z,8.83
2019-04-25T20:15:22.332Z,1.37
2019-04-25T20:17:52.000Z,1.90
2019-04-25T20:20:21.714Z,2.70
2019-04-25T20:22:52.330Z,1.30
2019-04-25T20:25:24.252Z,2.63
2019-04-25T20:27:53.529Z,1.47
2019-04-25T20:30:23.628Z,3.13
2019-04-25T20:32:53.596Z,1.30
2019-04-25T20:35:24.971Z,2.03
2019-04-25T20:37:55.640Z,1.30
2019-04-25T20:40:26.515Z,2.97
2019-04-25T20:42:56.444Z,1.67
2019-04-25T20:45:25.858Z,1.40
2019-04-25T20:47:55.121Z,2.80
2019-04-25T20:50:24.733Z,1.17
2019-04-25T20:52:55.034Z,1.40
2019-04-25T20:55:24.417Z,1.83
2019-04-25T20:57:53.962Z,3.03
2019-04-25T21:00:57.795Z,3.00
2019-04-25T21:03:27.766Z,3.00
2019-04-25T21:06:05.365Z,1.90
2019-04-25T21:08:35.618Z,2.20
2019-04-25T21:11:04.882Z,2.20
2019-04-25T21:13:43.030Z,3.50
2019-04-25T21:16:46.512Z,3.73
2019-04-25T21:19:18.181Z,2.10
2019-04-25T21:21:49.515Z,2.53
2019-04-25T21:24:19.380Z,2.73
2019-04-25T21:26:48.695Z,4.20
2019-04-25T21:29:17.961Z,3.57
2019-04-25T21:31:47.531Z,2.93
2019-04-25T21:34:25.859Z,3.17
2019-04-25T21:36:49.751Z,1.90
2019-04-25T21:39:31.234Z,2.93
2019-04-25T21:42:19.768Z,1.90
2019-04-25T21:44:49.284Z,4.37
2019-04-25T21:47:20.451Z,1.90
2019-04-25T21:49:52.323Z,2.03
2019-04-25T21:52:22.736Z,2.20
2019-04-25T21:54:53.110Z,3.20
2019-04-25T21:57:22.969Z,4.90
2019-04-25T22:00:00.374Z,2.57
2019-04-25T22:02:23.498Z,2.40
2019-04-25T22:04:54.133Z,3.77
2019-04-25T22:07:25.971Z,3.47
2019-04-25T22:09:56.892Z,2.70
2019-04-25T22:12:26.349Z,2.17
2019-04-25T22:14:55.920Z,3.67
2019-04-25T22:17:25.908Z,6.17
2019-04-25T22:19:56.764Z,3.90
2019-04-25T22:22:28.033Z,3.20
2019-04-25T22:24:58.587Z,2.70
2019-04-25T22:27:32.502Z,4.30
2019-04-25T22:30:03.424Z,4.20
2019-04-25T22:32:52.223Z,5.00
2019-04-25T22:35:25.495Z,4.50
2019-04-25T22:37:55.719Z,4.70
2019-04-25T22:40:25.116Z,5.73
2019-04-25T22:42:55.062Z,3.73
2019-04-25T22:45:24.629Z,3.60
2019-04-25T22:47:54.481Z,4.27
2019-04-25T22:50:24.010Z,4.37
2019-04-25T22:52:53.599Z,5.73
2019-04-25T22:55:22.954Z,8.23
2019-04-25T22:57:52.209Z,5.03
2019-04-25T23:00:26.886Z,7.30
2019-04-25T23:03:02.302Z,4.53
2019-04-25T23:05:36.104Z,3.80
2019-04-25T23:08:06.102Z,3.97
2019-04-25T23:10:35.378Z,6.03
2019-04-25T23:13:05.088Z,4.00
2019-04-25T23:15:34.371Z,5.67
2019-04-25T23:18:05.339Z,4.00
2019-04-25T23:20:34.832Z,6.27
2019-04-25T23:23:04.867Z,4.70
2019-04-25T23:25:54.556Z,5.60
2019-04-25T23:28:26.490Z,4.60
2019-04-25T23:31:18.766Z,3.90
2019-04-25T23:33:48.061Z,4.60
2019-04-25T23:36:18.465Z,4.17
2019-04-25T23:38:49.130Z,5.90
2019-04-25T23:41:19.598Z,5.77
2019-04-25T23:43:50.698Z,7.53
2019-04-25T23:46:21.537Z,4.90
2019-04-25T23:48:50.884Z,5.30
2019-04-25T23:51:21.468Z,7.23
2019-04-25T23:53:51.487Z,5.50
2019-04-25T23:56:21.142Z,7.33
2019-04-25T23:58:50.877Z,6.67
